NATURA VA

 METAR AND TAF INFORMATION
METAR FOR LELN
ADDS - METARS form results

(1653 UTC 26 March 2019)
Data provider http://aviationweather.gov/metar/data/
 
METAR text: LELN 261630Z 10018KT CAVOK 15/M15 Q1021
Conditions at: LELN (LEON/VIRGEN CAMI, ES) observed 1630 UTC 26 March 2019
Temperature: 15.0°C (59°F)
Dewpoint: -15.0°C ( 5°F) [RH = 11%]
Pressure (altimeter): 30.15 inches Hg (1021.0 mb)
Winds: from the E (100 degrees) at 21 MPH (18 knots; 9.3 m/s)
Visibility: 6 or more miles (10+ km)
Ceiling: ceiling and visibility are OK
Clouds: unknown
Weather: no significant weather observed at this time

METAR text: LELN 261600Z 09020KT CAVOK 15/M16 Q1021
Conditions at: LELN (LEON/VIRGEN CAMI, ES) observed 1600 UTC 26 March 2019
Temperature: 15.0°C (59°F)
Dewpoint: -16.0°C ( 3°F) [RH = 10%]
Pressure (altimeter): 30.15 inches Hg (1021.0 mb)
Winds: from the E (90 degrees) at 23 MPH (20 knots; 10.3 m/s)
Visibility: 6 or more miles (10+ km)
Ceiling: ceiling and visibility are OK
Clouds: unknown
Weather: no significant weather observed at this time

Forecast for: LELN (LEON/VIRGEN CAMI, ES)
Text: TAF LELN 261400Z 2615/2624 09015KT CAVOK
Forecast period: 1500 to 2000 UTC 26 March 2019
Forecast type: FROM: standard forecast or significant change
Winds: from the E (90 degrees) at 17 MPH (15 knots; 7.7 m/s)
Visibility: 6 or more miles 10+ km)
Ceiling: unknown
Clouds: missing
Weather: NSW  (no significant weather)
Text: TEMPO 2615/2619 09020G30KT
Forecast period: 1500 to 1900 UTC 26 March 2019
Forecast type: TEMPORARY: The following changes expected for less than half the time period
Winds: from the E (90 degrees) at 23 MPH (20 knots; 10.3 m/s)
gusting to 34 MPH (30 knots; 15.4 m/s)
Visibility: missing
Ceiling: unknown
Clouds: missing
Weather: no significant weather forecast for this period
Text: BECMG 2620/2622 VRB05KT
Forecast period: 2000 UTC 26 March 2019 to 0000 UTC 27 March 2019
Forecast type: BECOMING: Conditions expected to become as follows by 2200 UTC 26 March 2019
Winds: variable direction winds at 6 MPH (5 knots; 2.6 m/s)
Visibility: 6 or more miles 10+ km)
Ceiling: unknown
Clouds: missing
Weather: NSW  (no significant weather)

 AIRPORT MAP

 RUNWAY INFORMATION
Runway 05 Runway length 6890 ft Runway width 148 ft
Runway elevation 2994 ft Runway displaced threshold 0 ft Runway heading 45
Runway 23 Runway length 6890 ft Runway width 148 ft
Runway elevation 3001 ft Runway displaced threshold 0 ft Runway heading 225
Runway 06 Runway length 3609 ft Runway width 328 ft
Runway elevation 3034 ft Runway displaced threshold 0 ft Runway heading 60
Runway 24 Runway length 3609 ft Runway width 328 ft
Runway elevation 3000 ft Runway displaced threshold 0 ft Runway heading 240

 AIRPORT FREQUENCIES
Type APP Name APP Frequency 122.1 MHZ
Type TWR Name TWR Frequency 122.1 MHZ

 AIRPORT NEAR NAVIGATION AIDS
Type VOR-DME Name Leon Frequency 112000 KHZ
Type NDB Name Leon Frequency 330 KHZ



Powered by Virtual Airlines Manager [v2.6.2]